Time;durP1;ratioP1;P1;durP2;ratioP2;P2;SDS_P1;SDS_P2;PMS_P1;PMS_P2;Temp;Humidity;BMP_temperature;BMP_pressure;BME280_temperature;BME280_humidity;BME280_pressure;Samples;Min_cycle;Max_cycle;Signal;HPM_P1;HPM_P2
2023/02/21 02:16:17;;;;;;;8.18;1.30;;;6.60;93.10;;;;;;4999635;28;20046;-76
2023/02/21 02:19:05;;;;;;;12.15;1.48;;;6.60;92.80;;;;;;4997848;28;20053;-77
2023/02/21 02:21:55;;;;;;;21.80;2.22;;;6.60;92.70;;;;;;5019039;28;20305;-76
2023/02/21 02:25:04;;;;;;;11.00;1.38;;;6.70;91.80;;;;;;4997427;28;20596;-76
2023/02/21 02:27:30;;;;;;;9.13;1.25;;;6.60;92.70;;;;;;4919008;28;20048;-76
2023/02/21 02:30:48;;;;;;;6.25;0.98;;;6.60;92.70;;;;;;5001224;28;20498;-77
2023/02/21 02:33:39;;;;;;;23.30;1.70;;;6.60;92.50;;;;;;4940689;28;20079;-77
2023/02/21 02:36:19;;;;;;;23.00;1.85;;;6.50;92.90;;;;;;5015851;28;20065;-76
2023/02/21 02:38:53;;;;;;;14.00;1.88;;;6.50;92.70;;;;;;4999694;28;20052;-77
2023/02/21 02:41:52;;;;;;;11.73;1.85;;;6.40;93.00;;;;;;5021437;28;20076;-76
2023/02/21 02:44:55;;;;;;;14.07;1.90;;;6.30;93.00;;;;;;5018331;28;20057;-76
2023/02/21 02:47:28;;;;;;;15.40;1.90;;;6.40;92.70;;;;;;5016261;28;20061;-77
2023/02/21 02:49:57;;;;;;;12.35;2.13;;;6.30;93.40;;;;;;5019680;28;20056;-77
2023/02/21 02:52:24;;;;;;;12.93;1.60;;;6.20;93.80;;;;;;5015377;28;20053;-77
2023/02/21 02:55:03;;;;;;;19.05;2.05;;;6.20;93.40;;;;;;5001309;28;20079;-77
2023/02/21 02:57:39;;;;;;;16.92;1.88;;;6.20;92.80;;;;;;5016725;28;20056;-77
2023/02/21 03:00:09;;;;;;;11.38;1.48;;;6.20;93.10;;;;;;5002892;28;20046;-77
2023/02/21 03:02:49;;;;;;;11.23;1.55;;;6.20;92.30;;;;;;5002945;28;20148;-77
2023/02/21 03:05:49;;;;;;;15.90;2.00;;;6.40;90.40;;;;;;5002932;28;20049;-77
2023/02/21 03:08:16;;;;;;;7.47;1.15;;;6.40;90.20;;;;;;4993770;28;20049;-77
2023/02/21 03:11:00;;;;;;;18.95;2.00;;;6.50;89.10;;;;;;5003180;28;20057;-78
2023/02/21 03:13:37;;;;;;;13.85;1.75;;;6.30;89.90;;;;;;5019771;28;20061;-78
2023/02/21 03:16:24;;;;;;;14.05;1.73;;;6.30;89.60;;;;;;5001599;28;20076;-77
2023/02/21 03:19:02;;;;;;;12.55;1.40;;;6.30;89.10;;;;;;5001012;28;20049;-77
2023/02/21 03:22:08;;;;;;;21.85;2.45;;;6.20;89.20;;;;;;4997642;28;20061;-77
2023/02/21 03:24:39;;;;;;;17.10;1.92;;;6.30;88.60;;;;;;5002480;28;20494;-78
2023/02/21 03:27:07;;;;;;;28.08;2.53;;;6.30;88.10;;;;;;5009425;28;20417;-77
2023/02/21 03:29:36;;;;;;;9.75;1.10;;;6.30;88.40;;;;;;5006513;28;20056;-77
2023/02/21 03:34:52;;;;;;;12.15;1.63;;;6.10;88.20;;;;;;5021714;28;20061;-77
2023/02/21 03:37:29;;;;;;;22.33;2.38;;;6.10;88.20;;;;;;5025030;28;20076;-77
2023/02/21 03:39:56;;;;;;;13.88;2.00;;;6.10;88.30;;;;;;5019656;28;20182;-77
2023/02/21 03:42:23;;;;;;;11.35;1.90;;;6.00;88.20;;;;;;5003330;28;20053;-77
2023/02/21 03:44:50;;;;;;;15.48;1.75;;;6.00;88.10;;;;;;5021916;28;20136;-77
2023/02/21 03:47:17;;;;;;;22.98;2.17;;;6.00;88.20;;;;;;5022553;28;20052;-78
2023/02/21 03:49:43;;;;;;;16.25;1.77;;;6.00;88.00;;;;;;5022454;28;20060;-77
2023/02/21 03:52:11;;;;;;;21.90;2.72;;;5.90;88.60;;;;;;5003434;28;20380;-77
2023/02/21 03:54:39;;;;;;;17.45;1.75;;;5.90;89.30;;;;;;5024091;28;20051;-77
2023/02/21 03:57:06;;;;;;;23.00;2.90;;;5.90;89.40;;;;;;5007276;28;20055;-77
2023/02/21 03:59:33;;;;;;;19.52;1.95;;;5.90;89.30;;;;;;5019925;28;20409;-77
2023/02/21 04:02:00;;;;;;;9.80;1.63;;;5.80;89.70;;;;;;5020470;28;20502;-78
2023/02/21 04:04:27;;;;;;;14.82;2.08;;;5.90;89.40;;;;;;5005044;28;20426;-76
2023/02/21 04:06:53;;;;;;;16.77;1.77;;;5.90;89.10;;;;;;5004566;28;20490;-77
2023/02/21 04:09:20;;;;;;;13.80;2.53;;;5.90;89.20;;;;;;5003749;28;20053;-77
2023/02/21 04:11:47;;;;;;;15.25;1.77;;;5.90;89.10;;;;;;5022215;28;20049;-77
2023/02/21 04:14:14;;;;;;;18.15;1.88;;;5.90;89.60;;;;;;5020987;28;20049;-77
2023/02/21 04:16:41;;;;;;;23.92;1.90;;;5.80;90.00;;;;;;5005623;28;20053;-77
2023/02/21 04:19:08;;;;;;;14.80;1.23;;;5.80;90.30;;;;;;5003361;28;20060;-77
2023/02/21 04:21:34;;;;;;;15.35;2.00;;;5.70;90.40;;;;;;5021596;28;20042;-76
2023/02/21 04:24:01;;;;;;;11.15;2.05;;;5.70;90.90;;;;;;5019112;28;20052;-76
2023/02/21 04:26:28;;;;;;;14.30;2.38;;;5.70;90.90;;;;;;5018458;28;20050;-77
2023/02/21 04:28:55;;;;;;;23.17;2.08;;;5.70;91.20;;;;;;5001904;28;20358;-78
2023/02/21 04:31:22;;;;;;;11.27;1.33;;;5.60;91.70;;;;;;5007999;28;20131;-78
2023/02/21 04:33:49;;;;;;;13.57;2.15;;;5.60;91.70;;;;;;5018967;28;20060;-78
2023/02/21 04:36:31;;;;;;;14.15;2.22;;;5.60;91.70;;;;;;5020144;28;20076;-77
2023/02/21 04:38:58;;;;;;;13.98;2.15;;;5.70;91.20;;;;;;5017984;28;20482;-77
2023/02/21 04:41:25;;;;;;;18.42;2.47;;;5.70;91.80;;;;;;5005226;28;20498;-77
2023/02/21 04:43:52;;;;;;;15.13;1.80;;;5.60;91.70;;;;;;5020644;28;20517;-77
2023/02/21 04:46:19;;;;;;;20.08;2.42;;;5.60;91.80;;;;;;5004188;28;20297;-78
2023/02/21 04:48:49;;;;;;;10.00;1.65;;;5.60;91.90;;;;;;5004162;28;20056;-77
2023/02/21 04:51:19;;;;;;;23.58;2.25;;;5.70;91.30;;;;;;5003221;28;20053;-76
2023/02/21 04:53:48;;;;;;;14.82;2.33;;;5.80;90.80;;;;;;5015305;28;20453;-77
2023/02/21 04:56:19;;;;;;;18.50;2.80;;;5.80;90.50;;;;;;5022700;28;20131;-78
2023/02/21 04:58:47;;;;;;;22.85;2.10;;;5.70;91.00;;;;;;5021852;28;20569;-78
2023/02/21 05:01:15;;;;;;;25.55;2.08;;;5.70;90.80;;;;;;5020068;28;20045;-78
2023/02/21 05:03:43;;;;;;;21.70;1.95;;;5.70;90.50;;;;;;4998795;28;20045;-77
2023/02/21 05:06:15;;;;;;;22.58;1.95;;;5.70;90.50;;;;;;5022243;28;20455;-78
2023/02/21 05:08:42;;;;;;;29.15;2.80;;;5.60;90.90;;;;;;5021077;28;20475;-78
2023/02/21 05:11:09;;;;;;;22.02;2.08;;;5.60;90.60;;;;;;5020389;28;20483;-77
2023/02/21 05:13:36;;;;;;;21.60;2.58;;;5.60;90.40;;;;;;5020700;28;20057;-78
2023/02/21 05:16:03;;;;;;;14.80;2.10;;;5.70;90.00;;;;;;5022343;28;20111;-78
2023/02/21 05:18:30;;;;;;;18.67;3.42;;;5.60;89.80;;;;;;5020890;28;20045;-77
2023/02/21 05:20:56;;;;;;;17.58;3.00;;;5.60;89.70;;;;;;5000965;28;20050;-78
2023/02/21 05:23:32;;;;;;;18.48;2.70;;;5.60;89.70;;;;;;5023840;28;20510;-78
2023/02/21 05:26:01;;;;;;;19.08;2.55;;;5.60;89.50;;;;;;5000856;28;20376;-78
2023/02/21 05:28:27;;;;;;;18.98;2.42;;;5.60;89.40;;;;;;5022001;28;20041;-78
2023/02/21 05:30:54;;;;;;;20.55;2.15;;;5.60;89.20;;;;;;4998650;28;20139;-78
2023/02/21 05:33:22;;;;;;;19.17;2.35;;;5.70;89.10;;;;;;5001823;28;20064;-78
2023/02/21 05:35:49;;;;;;;20.30;3.03;;;5.60;89.20;;;;;;4997139;28;20056;-78
2023/02/21 05:38:21;;;;;;;32.53;3.15;;;5.60;89.60;;;;;;5000538;28;20057;-78
2023/02/21 05:40:48;;;;;;;8.60;2.78;;;5.50;90.00;;;;;;5000631;28;20592;-78
2023/02/21 05:43:15;;;;;;;23.02;3.05;;;5.50;90.10;;;;;;5014579;28;20148;-78
2023/02/21 05:45:42;;;;;;;17.45;2.75;;;5.40;90.40;;;;;;5007189;28;20059;-78
2023/02/21 05:48:09;;;;;;;29.13;3.15;;;5.40;90.50;;;;;;5000061;28;20042;-78
2023/02/21 05:50:38;;;;;;;26.92;2.53;;;5.30;90.80;;;;;;5020244;28;20045;-80
2023/02/21 05:53:05;;;;;;;23.05;2.28;;;5.30;90.80;;;;;;5013701;28;20132;-76
2023/02/21 05:55:32;;;;;;;32.72;2.78;;;5.30;90.90;;;;;;5016243;28;20078;-79
2023/02/21 05:57:59;;;;;;;26.92;3.05;;;5.30;91.30;;;;;;5016511;28;20049;-79
2023/02/21 06:00:29;;;;;;;10.82;2.53;;;5.20;91.50;;;;;;5018184;28;20060;-79
2023/02/21 06:02:56;;;;;;;28.27;2.95;;;5.20;91.30;;;;;;5017330;28;20227;-78
2023/02/21 06:05:23;;;;;;;23.50;3.45;;;5.10;91.80;;;;;;5003175;28;20064;-80
2023/02/21 06:07:50;;;;;;;17.80;3.45;;;5.10;91.90;;;;;;5005311;28;20053;-78
2023/02/21 06:10:18;;;;;;;29.02;2.13;;;5.10;91.70;;;;;;5016933;28;20053;-77
2023/02/21 06:12:45;;;;;;;26.05;4.20;;;5.10;91.90;;;;;;5003464;28;20056;-78
2023/02/21 06:15:12;;;;;;;27.40;2.63;;;5.20;91.60;;;;;;5021077;28;20057;-80
2023/02/21 06:17:40;;;;;;;23.30;3.28;;;5.10;92.10;;;;;;5019377;28;20053;-77
2023/02/21 06:20:12;;;;;;;24.75;2.70;;;5.10;91.90;;;;;;5004035;28;20593;-77
2023/02/21 06:22:38;;;;;;;26.08;3.55;;;5.20;91.60;;;;;;5019719;28;20041;-77
2023/02/21 06:25:06;;;;;;;24.15;3.22;;;5.10;91.60;;;;;;5019347;28;20068;-75
2023/02/21 06:27:33;;;;;;;16.00;2.72;;;5.10;91.70;;;;;;5005810;28;20578;-80
2023/02/21 06:29:59;;;;;;;24.73;3.30;;;5.00;92.30;;;;;;5000316;28;20046;-75
2023/02/21 06:32:26;;;;;;;18.50;3.25;;;5.10;92.10;;;;;;4999589;28;20064;-77
2023/02/21 06:34:53;;;;;;;25.92;3.67;;;5.10;91.30;;;;;;4999875;28;20050;-81
2023/02/21 06:37:20;;;;;;;25.13;3.20;;;5.20;91.00;;;;;;5004922;28;20060;-77
2023/02/21 06:39:47;;;;;;;31.77;4.38;;;5.20;91.40;;;;;;5003892;28;20648;-88
2023/02/21 06:42:15;;;;;;;20.73;2.92;;;5.10;91.40;;;;;;4998844;28;20048;-85
2023/02/21 06:44:46;;;;;;;45.13;4.40;;;5.20;91.30;;;;;;5000549;28;20379;-79
2023/02/21 06:47:14;;;;;;;38.40;4.53;;;5.20;91.10;;;;;;5016025;28;20521;-80
2023/02/21 06:49:42;;;;;;;22.50;3.40;;;5.20;91.30;;;;;;5019165;28;20049;-79
2023/02/21 06:52:09;;;;;;;32.67;4.20;;;5.20;91.40;;;;;;4993344;28;20056;-79
2023/02/21 06:54:36;;;;;;;48.15;4.10;;;5.20;91.50;;;;;;5017487;28;20490;-79
2023/02/21 06:57:04;;;;;;;29.77;3.45;;;5.20;91.80;;;;;;5020030;28;20079;-79
2023/02/21 06:59:33;;;;;;;27.27;3.42;;;5.10;92.10;;;;;;5024538;28;20053;-79
2023/02/21 07:02:03;;;;;;;21.27;2.78;;;5.10;92.40;;;;;;5010219;28;20147;-79
2023/02/21 07:04:30;;;;;;;22.85;3.58;;;5.10;92.80;;;;;;5009457;28;20163;-79
2023/02/21 07:06:57;;;;;;;28.90;3.95;;;5.20;92.20;;;;;;5012555;28;20053;-79
2023/02/21 07:09:24;;;;;;;44.78;3.78;;;5.20;92.60;;;;;;5006170;28;20339;-80
2023/02/21 07:11:51;;;;;;;28.35;2.85;;;5.30;92.30;;;;;;5022928;28;20425;-80
2023/02/21 07:14:18;;;;;;;33.80;4.03;;;5.20;92.40;;;;;;5004108;28;20050;-78
2023/02/21 07:16:44;;;;;;;20.38;2.58;;;5.20;92.20;;;;;;5020865;28;20053;-79
2023/02/21 07:19:14;;;;;;;26.40;3.50;;;5.30;92.50;;;;;;5004111;28;20041;-78
2023/02/21 07:21:42;;;;;;;30.10;3.45;;;5.30;92.10;;;;;;5012237;28;20160;-79
2023/02/21 07:24:08;;;;;;;28.60;3.67;;;5.40;92.30;;;;;;5025044;28;20564;-78
2023/02/21 07:26:36;;;;;;;28.23;3.30;;;5.40;91.80;;;;;;5009064;28;20057;-78
2023/02/21 07:29:05;;;;;;;36.13;3.75;;;5.50;91.40;;;;;;5023008;28;20053;-78
2023/02/21 07:31:32;;;;;;;30.23;3.83;;;5.50;91.60;;;;;;5007758;28;20053;-78
2023/02/21 07:33:59;;;;;;;39.60;3.50;;;5.60;90.50;;;;;;5023875;28;20115;-79
2023/02/21 07:36:26;;;;;;;37.60;4.18;;;5.70;90.50;;;;;;5023721;28;20485;-78
2023/02/21 07:38:53;;;;;;;18.08;3.33;;;5.70;90.30;;;;;;5024957;28;20060;-78
2023/02/21 07:41:20;;;;;;;38.75;3.97;;;5.70;90.00;;;;;;5021516;28;20411;-78
2023/02/21 07:43:47;;;;;;;41.88;4.00;;;5.80;89.90;;;;;;5011173;28;20045;-76
2023/02/21 07:46:16;;;;;;;44.92;3.53;;;5.90;89.90;;;;;;5024398;28;20053;-76
2023/02/21 07:48:43;;;;;;;38.65;4.65;;;5.90;89.70;;;;;;5029621;28;20057;-77
2023/02/21 07:51:10;;;;;;;35.75;3.25;;;6.00;89.10;;;;;;5008200;28;20081;-79
2023/02/21 07:53:37;;;;;;;33.85;3.88;;;6.00;89.20;;;;;;5003325;28;20397;-76
2023/02/21 07:56:04;;;;;;;22.05;3.25;;;6.00;88.50;;;;;;5009289;28;20049;-76
2023/02/21 07:58:31;;;;;;;30.08;3.95;;;6.00;88.60;;;;;;4998664;28;20050;-76
2023/02/21 08:00:58;;;;;;;30.15;3.70;;;6.10;88.40;;;;;;5007792;28;20045;-76
2023/02/21 08:03:25;;;;;;;48.35;3.95;;;6.10;88.40;;;;;;5003675;28;20045;-75
2023/02/21 08:05:52;;;;;;;27.80;3.47;;;6.10;88.60;;;;;;5006719;28;20580;-75
2023/02/21 08:08:19;;;;;;;22.67;3.08;;;6.20;88.00;;;;;;5004859;28;20064;-75
2023/02/21 08:10:45;;;;;;;30.63;3.78;;;6.20;87.80;;;;;;5018438;28;20466;-75
2023/02/21 08:13:12;;;;;;;30.15;4.47;;;6.30;88.20;;;;;;5022166;28;20639;-75
2023/02/21 08:15:39;;;;;;;21.10;4.30;;;6.40;87.90;;;;;;5004463;28;20049;-75
2023/02/21 08:18:17;;;;;;;32.03;3.08;;;6.50;87.30;;;;;;5021800;28;20440;-75
2023/02/21 08:20:44;;;;;;;29.77;3.67;;;6.50;87.60;;;;;;5023009;28;20045;-75
2023/02/21 08:23:11;;;;;;;30.58;3.75;;;6.60;87.10;;;;;;5023754;28;20047;-75
2023/02/21 08:25:38;;;;;;;36.63;3.80;;;6.70;86.50;;;;;;5022654;28;20049;-75
2023/02/21 08:28:05;;;;;;;26.98;3.25;;;6.80;86.90;;;;;;5019778;28;20343;-75
2023/02/21 08:30:31;;;;;;;30.20;3.95;;;6.90;85.80;;;;;;5022960;28;20420;-75
2023/02/21 08:32:58;;;;;;;38.90;3.08;;;6.90;85.60;;;;;;5005164;28;20072;-75
2023/02/21 08:35:25;;;;;;;25.75;3.53;;;7.10;86.80;;;;;;5023073;28;20100;-75
2023/02/21 08:37:55;;;;;;;25.10;3.45;;;7.20;85.80;;;;;;5007066;28;20049;-76
2023/02/21 08:40:23;;;;;;;46.92;5.38;;;7.30;85.20;;;;;;5023444;28;20053;-76
2023/02/21 08:42:52;;;;;;;23.77;3.97;;;7.50;84.90;;;;;;5001297;28;20042;-76
2023/02/21 08:45:21;;;;;;;31.85;3.53;;;7.60;84.50;;;;;;5004836;28;20079;-76
2023/02/21 08:47:49;;;;;;;33.75;4.15;;;7.80;83.10;;;;;;5004495;28;20049;-76
2023/02/21 08:50:17;;;;;;;46.83;5.18;;;7.70;82.90;;;;;;5005210;28;20277;-76
2023/02/21 08:52:48;;;;;;;31.88;4.72;;;7.70;82.90;;;;;;5015794;28;20573;-76
2023/02/21 08:55:18;;;;;;;34.10;4.45;;;7.60;83.30;;;;;;5019124;28;20318;-76
2023/02/21 08:57:48;;;;;;;33.40;3.88;;;7.70;83.00;;;;;;5007178;28;20573;-76
2023/02/21 09:00:17;;;;;;;19.25;2.78;;;7.70;81.80;;;;;;5001192;28;20471;-76
2023/02/21 09:02:43;;;;;;;33.63;4.70;;;7.60;81.60;;;;;;5004711;28;20053;-76
2023/02/21 09:05:15;;;;;;;30.52;3.80;;;7.60;81.90;;;;;;5002187;28;20107;-76
2023/02/21 09:07:42;;;;;;;30.60;4.03;;;7.60;82.70;;;;;;5020905;28;20534;-76
2023/02/21 09:10:10;;;;;;;34.75;3.47;;;7.70;83.20;;;;;;5017754;28;20037;-76
2023/02/21 09:12:37;;;;;;;27.08;3.45;;;7.70;82.60;;;;;;5023927;28;20112;-76
2023/02/21 09:15:05;;;;;;;35.13;5.15;;;7.70;82.20;;;;;;5003668;28;20053;-76
2023/02/21 09:17:32;;;;;;;32.42;3.40;;;7.80;82.80;;;;;;5018676;28;20120;-75
2023/02/21 09:20:05;;;;;;;29.48;3.53;;;7.90;82.20;;;;;;5002722;28;20063;-76
2023/02/21 09:22:32;;;;;;;25.33;3.80;;;7.80;81.40;;;;;;4999086;28;20132;-76
2023/02/21 09:25:00;;;;;;;28.65;3.45;;;7.80;81.60;;;;;;5005470;28;20560;-75
2023/02/21 09:27:36;;;;;;;27.83;3.78;;;7.80;81.90;;;;;;5007333;28;20072;-75
2023/02/21 09:30:10;;;;;;;25.92;3.78;;;7.90;81.80;;;;;;5003695;28;20045;-76
2023/02/21 09:32:38;;;;;;;31.48;5.03;;;8.00;81.40;;;;;;5001570;28;20064;-75
2023/02/21 09:35:06;;;;;;;42.67;4.07;;;7.90;80.60;;;;;;5019820;28;20064;-75
2023/02/21 09:37:36;;;;;;;26.05;3.63;;;7.90;80.80;;;;;;5024554;28;20053;-75
2023/02/21 09:40:07;;;;;;;31.98;4.47;;;8.00;81.10;;;;;;5022970;28;20077;-75
2023/02/21 09:42:35;;;;;;;29.90;4.05;;;8.20;80.30;;;;;;5004721;28;20050;-76
2023/02/21 09:45:02;;;;;;;37.47;4.57;;;8.30;78.90;;;;;;5002523;28;20041;-76
2023/02/21 09:47:34;;;;;;;42.58;4.63;;;8.10;78.80;;;;;;5004727;28;20156;-76
2023/02/21 09:50:14;;;;;;;25.63;3.70;;;8.20;80.10;;;;;;5025416;28;20053;-76
2023/02/21 09:52:41;;;;;;;33.58;4.82;;;8.40;79.20;;;;;;5015991;28;20053;-76
2023/02/21 09:55:13;;;;;;;32.22;3.67;;;8.20;78.70;;;;;;5019784;28;20163;-76
2023/02/21 09:57:40;;;;;;;49.42;4.68;;;8.10;79.30;;;;;;5004680;28;20049;-76
2023/02/21 10:00:36;;;;;;;35.45;4.13;;;8.10;78.70;;;;;;5005633;28;20053;-76
2023/02/21 10:03:30;;;;;;;27.65;4.22;;;8.00;78.90;;;;;;5023101;28;20575;-77
2023/02/21 10:06:10;;;;;;;31.85;4.00;;;8.00;78.30;;;;;;4998772;28;20099;-76
2023/02/21 10:08:40;;;;;;;35.55;4.20;;;8.10;79.80;;;;;;5008416;28;20128;-76
2023/02/21 10:11:26;;;;;;;31.23;3.70;;;8.10;78.10;;;;;;4999287;28;20076;-77
2023/02/21 10:14:16;;;;;;;39.72;4.85;;;8.30;78.10;;;;;;5004148;28;20411;-77
2023/02/21 10:17:10;;;;;;;33.28;4.00;;;8.60;79.20;;;;;;5009318;28;20053;-77
2023/02/21 10:19:47;;;;;;;33.95;3.35;;;8.80;76.90;;;;;;5001331;28;20057;-77
2023/02/21 10:22:26;;;;;;;35.05;3.97;;;9.10;77.80;;;;;;5019034;28;20049;-77
2023/02/21 10:24:53;;;;;;;34.25;3.95;;;9.30;75.20;;;;;;5014632;28;20459;-76
2023/02/21 10:27:28;;;;;;;36.55;4.15;;;9.10;74.70;;;;;;5014833;28;20053;-76
2023/02/21 10:30:00;;;;;;;29.38;3.67;;;9.00;76.00;;;;;;5000571;28;20056;-78
2023/02/21 10:32:27;;;;;;;35.67;4.50;;;9.10;76.90;;;;;;5008858;28;20056;-78
2023/02/21 10:34:57;;;;;;;29.30;3.35;;;9.10;77.70;;;;;;5004043;28;20287;-76
2023/02/21 10:37:39;;;;;;;45.60;3.75;;;9.10;76.80;;;;;;5027942;28;20417;-76
2023/02/21 10:40:30;;;;;;;19.90;2.92;;;9.40;75.90;;;;;;5006481;28;20060;-76
2023/02/21 10:43:15;;;;;;;38.00;3.95;;;9.70;73.80;;;;;;5025883;28;20057;-75
2023/02/21 10:46:21;;;;;;;33.45;3.63;;;9.40;74.60;;;;;;5008371;28;20061;-76
2023/02/21 10:48:52;;;;;;;33.70;4.18;;;9.30;78.20;;;;;;5020096;28;20049;-76
2023/02/21 10:51:33;;;;;;;26.20;3.65;;;10.00;75.60;;;;;;5026064;28;20064;-76
2023/02/21 10:54:21;;;;;;;24.17;3.70;;;10.50;73.60;;;;;;5023239;28;20489;-75
2023/02/21 10:56:51;;;;;;;38.55;4.05;;;10.80;71.70;;;;;;5028057;28;20059;-76
2023/02/21 10:59:25;;;;;;;26.90;3.55;;;10.70;70.50;;;;;;5020636;28;20366;-77
2023/02/21 11:01:53;;;;;;;33.55;4.05;;;10.70;74.70;;;;;;5003387;28;20080;-77
2023/02/21 11:04:20;;;;;;;29.55;3.50;;;11.50;71.90;;;;;;5022012;28;20050;-77
2023/02/21 11:07:00;;;;;;;32.17;4.95;;;11.60;70.50;;;;;;5010948;28;20056;-77
2023/02/21 11:09:27;;;;;;;32.33;3.90;;;11.20;70.10;;;;;;5021338;28;20052;-77
2023/02/21 11:12:02;;;;;;;41.22;4.63;;;11.10;69.90;;;;;;5007435;28;20053;-77
2023/02/21 11:14:30;;;;;;;28.60;3.80;;;10.70;71.50;;;;;;5023761;28;20410;-76
2023/02/21 11:17:06;;;;;;;26.38;3.40;;;10.60;71.00;;;;;;5009949;28;20235;-76
2023/02/21 11:19:53;;;;;;;29.48;3.95;;;10.60;74.10;;;;;;5006490;28;20095;-76
2023/02/21 11:22:34;;;;;;;33.22;4.47;;;11.20;71.20;;;;;;5014389;28;20049;-77
2023/02/21 11:25:10;;;;;;;28.63;3.78;;;10.80;70.60;;;;;;5004329;28;20372;-77
2023/02/21 11:27:38;;;;;;;37.13;5.45;;;10.80;71.70;;;;;;5023341;28;20057;-77
2023/02/21 11:30:20;;;;;;;37.67;3.95;;;11.10;70.60;;;;;;5024519;28;20512;-77
2023/02/21 11:32:58;;;;;;;28.67;4.00;;;11.20;71.40;;;;;;5018776;28;20060;-77
2023/02/21 11:35:32;;;;;;;37.33;4.20;;;11.00;69.70;;;;;;5021504;28;20053;-77
2023/02/21 11:38:04;;;;;;;42.40;5.50;;;10.70;71.80;;;;;;5024836;28;20096;-77
2023/02/21 11:40:50;;;;;;;33.13;4.80;;;10.30;72.70;;;;;;5018723;28;20054;-77
2023/02/21 11:43:24;;;;;;;30.83;4.53;;;10.70;70.10;;;;;;5007659;28;20529;-77
2023/02/21 11:46:27;;;;;;;38.40;3.90;;;10.50;69.20;;;;;;5022314;28;20409;-77
2023/02/21 11:49:12;;;;;;;26.63;4.07;;;10.30;72.40;;;;;;4935510;28;20047;-77
2023/02/21 11:51:50;;;;;;;30.95;3.65;;;10.50;69.70;;;;;;5005664;28;20049;-77
2023/02/21 11:54:26;;;;;;;25.55;3.67;;;10.20;69.30;;;;;;5023136;28;20045;-77
2023/02/21 11:57:18;;;;;;;31.25;4.82;;;9.80;70.20;;;;;;5020448;28;20053;-77
2023/02/21 12:00:17;;;;;;;37.13;4.03;;;10.00;72.00;;;;;;5006829;28;20045;-77
2023/02/21 12:03:03;;;;;;;50.60;7.60;;;10.00;68.60;;;;;;5021854;28;20549;-77
2023/02/21 12:05:33;;;;;;;;;;;10.30;72.00;;;;;;5023161;28;20048;-77
2023/02/21 12:08:15;;;;;;;29.23;4.35;;;10.60;68.30;;;;;;5006300;28;20369;-77
2023/02/21 12:10:59;;;;;;;34.08;3.70;;;10.50;67.90;;;;;;5019160;28;20053;-77
2023/02/21 12:13:45;;;;;;;31.17;4.55;;;10.60;70.30;;;;;;5025300;28;20056;-77
2023/02/21 12:16:45;;;;;;;31.90;3.75;;;11.10;68.50;;;;;;5005195;28;20517;-77
2023/02/21 12:19:42;;;;;;;26.38;3.80;;;11.20;69.10;;;;;;5021046;28;20057;-77
2023/02/21 12:22:12;;;;;;;30.70;3.90;;;11.00;66.40;;;;;;5021753;28;20183;-77
2023/02/21 12:24:57;;;;;;;27.95;4.15;;;10.80;67.00;;;;;;5021677;28;20042;-76
2023/02/21 12:27:54;;;;;;;27.13;3.47;;;10.70;67.20;;;;;;5022606;28;20049;-76
2023/02/21 12:30:46;;;;;;;33.45;3.20;;;10.20;67.20;;;;;;5022817;28;20049;-77
2023/02/21 12:33:23;;;;;;;28.42;3.95;;;9.80;68.10;;;;;;5005740;28;20056;-76
2023/02/21 12:36:11;;;;;;;37.83;4.47;;;9.90;70.80;;;;;;5019453;28;20115;-76
2023/02/21 12:38:40;;;;;;;29.10;4.00;;;10.10;68.80;;;;;;5002001;28;20092;-76
2023/02/21 12:41:16;;;;;;;32.38;4.40;;;9.80;68.20;;;;;;5005285;28;20409;-76
2023/02/21 12:44:13;;;;;;;35.22;3.70;;;10.20;71.00;;;;;;5021961;28;20402;-76
2023/02/21 12:46:55;;;;;;;34.03;4.45;;;11.20;69.90;;;;;;5006443;28;20045;-77
2023/02/21 12:49:34;;;;;;;29.77;3.75;;;12.80;66.20;;;;;;5022012;28;20473;-77
2023/02/21 12:52:04;;;;;;;28.88;4.10;;;13.20;64.00;;;;;;5022593;28;20138;-77
2023/02/21 12:54:51;;;;;;;23.17;3.33;;;13.50;60.90;;;;;;5020043;28;20046;-76
2023/02/21 12:57:44;;;;;;;31.75;3.67;;;13.20;64.40;;;;;;5014882;28;20057;-76
2023/02/21 13:00:21;;;;;;;22.70;4.22;;;13.30;64.60;;;;;;5014090;28;20041;-77
2023/02/21 13:03:18;;;;;;;27.75;3.75;;;14.40;61.30;;;;;;5020435;28;20439;-77
2023/02/21 13:05:53;;;;;;;;;;;14.00;61.20;;;;;;4991917;28;20053;-76
2023/02/21 13:08:40;;;;;;;28.65;4.78;;;13.30;62.00;;;;;;5009225;28;19925;-76
2023/02/21 13:11:30;;;;;;;26.73;4.47;;;13.40;62.70;;;;;;5014948;28;20160;-77
2023/02/21 13:13:59;;;;;;;20.92;3.83;;;13.40;58.40;;;;;;4998294;28;20056;-76
2023/02/21 13:16:26;;;;;;;28.63;4.30;;;12.50;61.40;;;;;;5021970;28;20133;-79
2023/02/21 13:18:59;;;;;;;28.30;3.72;;;11.60;63.10;;;;;;5025163;28;20049;-77
2023/02/21 13:21:36;;;;;;;36.55;3.72;;;11.60;66.90;;;;;;5014539;28;20045;-77
2023/02/21 13:24:41;;;;;;;29.60;4.03;;;11.70;67.20;;;;;;5002587;28;20351;-77
2023/02/21 13:27:43;;;;;;;37.25;5.57;;;11.30;66.30;;;;;;5014715;28;20625;-77
2023/02/21 13:30:27;;;;;;;34.95;5.53;;;11.50;64.70;;;;;;4998304;28;20053;-77
2023/02/21 13:32:58;;;;;;;28.90;4.00;;;11.00;66.00;;;;;;5005429;28;20429;-77
2023/02/21 13:35:45;;;;;;;26.35;3.70;;;11.00;66.30;;;;;;5022922;28;20056;-77
2023/02/21 13:38:12;;;;;;;26.63;3.70;;;10.80;67.00;;;;;;5021598;28;20045;-77
2023/02/21 13:40:51;;;;;;;28.90;4.63;;;10.60;67.60;;;;;;5021727;28;20071;-77
2023/02/21 13:43:29;;;;;;;31.35;4.00;;;10.50;69.00;;;;;;5003956;28;20060;-77
2023/02/21 13:46:44;;;;;;;30.13;4.43;;;10.50;67.60;;;;;;5020939;28;20053;-77
2023/02/21 13:49:49;;;;;;;37.42;4.78;;;10.30;68.70;;;;;;5018377;28;20533;-76
2023/02/21 13:52:22;;;;;;;31.67;4.85;;;10.20;69.50;;;;;;5014745;28;20042;-76
2023/02/21 13:55:08;;;;;;;30.38;4.00;;;10.70;70.00;;;;;;5023731;28;20065;-77
2023/02/21 13:57:38;;;;;;;;;;;10.90;66.20;;;;;;5022110;28;20500;-82
2023/02/21 14:00:23;;;;;;;25.98;3.33;;;10.90;65.80;;;;;;5012062;28;19932;-84
2023/02/21 14:03:06;;;;;;;28.23;3.70;;;10.80;66.40;;;;;;4999789;28;20048;-82
2023/02/21 14:05:51;;;;;;;34.78;5.88;;;10.50;66.50;;;;;;5017157;28;20042;-80
2023/02/21 14:08:21;;;;;;;36.58;4.40;;;10.30;66.90;;;;;;5022105;28;20050;-77
2023/02/21 14:10:54;;;;;;;30.15;4.75;;;10.00;68.60;;;;;;5020952;28;20059;-78
2023/02/21 14:13:29;;;;;;;35.53;5.22;;;9.90;68.40;;;;;;4999627;28;20060;-77
2023/02/21 14:16:07;;;;;;;38.40;4.82;;;9.80;69.10;;;;;;5001915;28;20061;-77
2023/02/21 14:18:46;;;;;;;30.25;4.60;;;9.70;69.60;;;;;;5016641;28;20085;-77
2023/02/21 14:21:39;;;;;;;35.95;6.25;;;9.50;69.30;;;;;;5020039;28;20489;-76
2023/02/21 14:24:08;;;;;;;40.30;5.97;;;9.30;70.50;;;;;;5023401;28;20518;-76
2023/02/21 14:26:35;;;;;;;34.92;6.90;;;9.30;70.80;;;;;;5022116;28;20093;-76
2023/02/21 14:29:09;;;;;;;56.95;9.80;;;9.20;71.60;;;;;;5019821;28;20057;-76
2023/02/21 14:32:03;;;;;;;41.88;8.43;;;9.20;71.00;;;;;;5016328;28;20048;-76
2023/02/21 14:34:36;;;;;;;33.58;6.15;;;9.20;71.20;;;;;;4999445;28;20129;-75
2023/02/21 14:37:36;;;;;;;27.67;4.82;;;9.30;71.80;;;;;;5020820;28;20069;-75
2023/02/21 14:40:09;;;;;;;26.08;4.03;;;9.40;72.50;;;;;;5019587;28;20490;-75
2023/02/21 14:43:03;;;;;;;32.47;4.40;;;9.50;71.90;;;;;;4999318;28;20049;-76
2023/02/21 14:45:36;;;;;;;32.72;5.43;;;9.40;71.70;;;;;;5021978;28;20104;-75
2023/02/21 14:48:09;;;;;;;39.67;4.22;;;9.40;71.20;;;;;;5001498;28;20540;-76
2023/02/21 14:50:40;;;;;;;36.08;4.13;;;9.30;71.30;;;;;;5004452;28;20075;-75
2023/02/21 14:53:10;;;;;;;32.95;3.83;;;9.40;72.30;;;;;;5002652;28;20049;-76
2023/02/21 14:56:06;;;;;;;35.05;4.70;;;9.50;73.20;;;;;;5022087;28;20060;-75
2023/02/21 14:58:55;;;;;;;27.77;4.10;;;9.40;72.30;;;;;;5015223;28;20060;-75
2023/02/21 15:01:28;;;;;;;29.33;3.85;;;9.30;71.40;;;;;;5003294;28;20091;-75
2023/02/21 15:04:22;;;;;;;39.53;4.43;;;9.10;71.70;;;;;;5020858;28;20042;-75
2023/02/21 15:07:14;;;;;;;31.17;3.20;;;9.00;70.40;;;;;;5017265;28;20411;-75
2023/02/21 15:09:41;;;;;;;22.80;2.80;;;8.90;71.50;;;;;;5003925;28;20060;-75
2023/02/21 15:12:14;;;;;;;29.75;4.18;;;8.80;71.70;;;;;;5020703;28;20060;-75
2023/02/21 15:14:50;;;;;;;31.75;4.03;;;8.70;71.50;;;;;;5004275;28;20053;-75
2023/02/21 15:17:22;;;;;;;29.25;4.43;;;8.50;71.80;;;;;;5020829;28;20057;-75
2023/02/21 15:20:09;;;;;;;32.58;3.42;;;8.40;72.90;;;;;;5002699;28;20053;-75
2023/02/21 15:22:35;;;;;;;30.88;3.45;;;8.40;73.30;;;;;;5023785;28;20391;-74
2023/02/21 15:25:08;;;;;;;38.40;3.58;;;8.30;75.00;;;;;;5007681;28;20140;-75
2023/02/21 15:27:36;;;;;;;31.70;4.53;;;8.30;75.00;;;;;;5022450;28;20447;-75
2023/02/21 15:30:14;;;;;;;32.78;4.28;;;8.40;74.80;;;;;;5027659;28;20053;-74
2023/02/21 15:32:42;;;;;;;30.67;4.13;;;8.30;75.30;;;;;;5018163;28;20180;-75
2023/02/21 15:35:20;;;;;;;35.20;3.85;;;8.30;75.50;;;;;;5016996;28;20057;-75
2023/02/21 15:37:47;;;;;;;30.85;4.75;;;8.20;75.20;;;;;;5007396;28;20052;-75
2023/02/21 15:40:20;;;;;;;35.72;3.75;;;8.20;75.70;;;;;;5006842;28;20435;-75